Yuzhno-Sakhalinsk, Russia
Current Conditions -  °F | °C
As of 1:00 AM on Thursday 29 Jan 2015 (Local Time) from UHSS Reporting Station
Scattered Clouds Scattered Clouds  
Wind Chill: -2°   Ceiling: Unl
Heat Index: -2°   Visibility: 6mi
Dew Point: -6°   Wind: 0mph
Humidity: 85%   Direction: NA
Pressure: 29.94"   Gusts: NA
Location:  46.95°N, 142.73°E
Report Text: UHSS 281400Z 00000MPS 9999 SCT033CB M19/M21 Q1014 NOSIG RMK MTOBSC QFE759/1013 01810355
Loading
Personal Weather Stations






























Interactive Weather Map New forecast layout! Learn more

10-Day Weather Forecast

Advertisements
Track Severe Weather on mobile